Time;durP1;ratioP1;P1;durP2;ratioP2;P2;SDS_P1;SDS_P2;PMS_P1;PMS_P2;Temp;Humidity;BMP_temperature;BMP_pressure;BME280_temperature;BME280_humidity;BME280_pressure;Samples;Min_cycle;Max_cycle;Signal;HPM_P1;HPM_P2
2023/11/20 00:00:55;;;;;;;1.30;1.20;;;11.20;57.10;;;;;;5015342;28;20240;-52
2023/11/20 00:03:21;;;;;;;1.27;1.20;;;11.10;57.30;;;;;;5015511;28;20206;-53
2023/11/20 00:05:48;;;;;;;1.40;1.30;;;11.10;57.50;;;;;;5024449;28;20225;-52
2023/11/20 00:08:14;;;;;;;2.00;1.47;;;11.10;57.50;;;;;;5022320;28;20216;-53
2023/11/20 00:10:41;;;;;;;1.30;1.20;;;11.10;57.50;;;;;;5016805;28;20217;-53
2023/11/20 00:13:07;;;;;;;1.53;1.40;;;11.10;57.20;;;;;;5017473;28;20237;-56
2023/11/20 00:15:33;;;;;;;1.40;1.30;;;11.10;57.30;;;;;;5011613;28;20308;-57
2023/11/20 00:18:00;;;;;;;1.57;1.47;;;11.20;57.30;;;;;;5020332;28;20676;-57
2023/11/20 00:20:26;;;;;;;1.70;1.20;;;11.10;57.30;;;;;;5023625;28;20693;-53
2023/11/20 00:22:53;;;;;;;1.60;1.50;;;11.20;57.50;;;;;;5023050;28;20739;-54
2023/11/20 00:25:19;;;;;;;2.83;1.40;;;11.10;57.50;;;;;;5012794;28;20237;-56
2023/11/20 00:27:46;;;;;;;1.37;1.30;;;11.20;58.00;;;;;;5014735;28;20582;-56
2023/11/20 00:30:12;;;;;;;1.40;1.30;;;11.20;57.80;;;;;;5026488;28;20236;-55
2023/11/20 00:32:39;;;;;;;1.70;1.60;;;11.10;58.00;;;;;;5010997;28;20284;-50
2023/11/20 00:35:05;;;;;;;1.40;1.30;;;11.10;58.40;;;;;;5019248;28;20309;-54
2023/11/20 00:37:32;;;;;;;2.07;1.30;;;11.00;58.80;;;;;;5021019;28;20236;-55
2023/11/20 00:39:58;;;;;;;1.53;1.43;;;11.00;58.80;;;;;;5021813;28;20208;-56
2023/11/20 00:42:25;;;;;;;1.40;1.30;;;10.90;59.00;;;;;;5027410;28;20228;-57
2023/11/20 00:44:51;;;;;;;1.53;1.43;;;10.90;59.50;;;;;;5016231;28;20306;-55
2023/11/20 00:47:17;;;;;;;1.27;1.20;;;10.90;59.30;;;;;;5021656;28;20290;-55
2023/11/20 00:49:44;;;;;;;2.17;1.40;;;10.90;59.40;;;;;;5013957;28;20672;-56
2023/11/20 00:52:12;;;;;;;1.60;1.50;;;11.00;59.80;;;;;;5011741;28;20206;-52
2023/11/20 00:54:39;;;;;;;1.80;1.70;;;11.00;59.90;;;;;;5011761;28;20772;-56
2023/11/20 00:57:05;;;;;;;1.20;1.20;;;11.00;59.90;;;;;;5023931;28;20219;-53
2023/11/20 00:59:32;;;;;;;1.60;1.50;;;10.90;60.00;;;;;;5017832;28;20209;-53
2023/11/20 01:01:58;;;;;;;1.50;1.40;;;10.90;60.20;;;;;;5028248;28;20229;-56
2023/11/20 01:04:25;;;;;;;1.40;1.30;;;10.90;60.60;;;;;;5022809;28;20296;-56
2023/11/20 01:06:51;;;;;;;1.50;1.40;;;10.90;60.50;;;;;;5021185;28;20299;-54
2023/11/20 01:09:17;;;;;;;1.30;1.30;;;10.90;60.60;;;;;;5009304;28;20207;-54
2023/11/20 01:11:44;;;;;;;1.50;1.40;;;10.80;60.60;;;;;;5014717;28;20237;-54
2023/11/20 01:14:12;;;;;;;1.50;1.40;;;10.70;61.20;;;;;;5014938;28;20213;-54
2023/11/20 01:16:38;;;;;;;1.43;1.33;;;10.70;61.50;;;;;;5020933;28;20240;-55
2023/11/20 01:19:05;;;;;;;1.40;1.30;;;10.60;61.80;;;;;;5018523;28;20300;-56
2023/11/20 01:21:31;;;;;;;1.47;1.23;;;10.60;62.30;;;;;;5023477;28;20288;-57
2023/11/20 01:23:58;;;;;;;1.67;1.33;;;10.60;62.10;;;;;;5021439;28;20295;-54
2023/11/20 01:26:24;;;;;;;1.63;1.40;;;10.60;62.40;;;;;;5023873;28;20328;-56
2023/11/20 01:28:51;;;;;;;1.80;1.70;;;10.50;68.60;;;;;;5023060;28;20687;-56
2023/11/20 01:31:17;;;;;;;1.30;1.30;;;10.50;67.40;;;;;;5010825;28;20241;-56
2023/11/20 01:33:44;;;;;;;1.40;1.30;;;10.50;66.80;;;;;;5008387;28;20303;-55
2023/11/20 01:36:10;;;;;;;1.30;1.20;;;10.60;63.20;;;;;;5019126;28;20240;-56
2023/11/20 01:38:36;;;;;;;1.33;1.30;;;10.60;65.70;;;;;;5015167;28;20215;-57
2023/11/20 01:41:03;;;;;;;1.60;1.50;;;10.60;66.40;;;;;;5011154;28;20211;-57
2023/11/20 01:43:29;;;;;;;2.43;1.40;;;10.60;66.40;;;;;;5019776;28;20253;-55
2023/11/20 01:45:56;;;;;;;1.30;1.20;;;10.70;65.50;;;;;;5022879;28;20289;-54
2023/11/20 01:48:23;;;;;;;1.77;1.50;;;10.60;65.30;;;;;;5018667;28;20220;-53
2023/11/20 01:50:49;;;;;;;1.80;1.50;;;10.70;65.90;;;;;;5017494;28;20213;-56
2023/11/20 01:53:15;;;;;;;1.50;1.40;;;10.60;65.90;;;;;;5020764;28;20287;-54
2023/11/20 01:55:42;;;;;;;1.33;1.23;;;10.50;66.20;;;;;;5023834;28;20238;-56
2023/11/20 01:58:09;;;;;;;1.50;1.40;;;10.50;66.70;;;;;;5023593;28;20216;-56
2023/11/20 02:00:36;;;;;;;1.37;1.30;;;10.40;66.70;;;;;;5006735;28;20215;-53
2023/11/20 02:03:02;;;;;;;1.30;1.20;;;10.30;66.60;;;;;;5016356;28;20223;-56
2023/11/20 02:05:29;;;;;;;1.60;1.50;;;10.40;67.10;;;;;;5016288;28;20233;-55
2023/11/20 02:07:55;;;;;;;1.33;1.33;;;10.40;66.10;;;;;;5006514;28;20302;-54
2023/11/20 02:10:22;;;;;;;1.87;1.50;;;10.40;65.10;;;;;;5013531;28;20215;-54
2023/11/20 02:12:49;;;;;;;1.50;1.47;;;10.30;65.60;;;;;;5008087;28;20291;-53
2023/11/20 02:15:15;;;;;;;1.50;1.40;;;10.30;65.70;;;;;;5011054;28;20235;-56
2023/11/20 02:17:42;;;;;;;2.20;1.57;;;10.30;65.60;;;;;;5018015;28;20199;-56
2023/11/20 02:20:08;;;;;;;2.60;1.50;;;10.30;70.40;;;;;;5023215;28;20238;-54
2023/11/20 02:22:35;;;;;;;1.60;1.50;;;10.30;71.70;;;;;;5011748;28;20232;-55
2023/11/20 02:25:01;;;;;;;1.87;1.77;;;10.30;70.00;;;;;;5016324;28;20228;-52
2023/11/20 02:27:28;;;;;;;1.60;1.50;;;10.20;70.10;;;;;;5009275;28;20208;-53
2023/11/20 02:29:54;;;;;;;3.00;2.10;;;10.20;70.00;;;;;;5023501;28;20756;-52
2023/11/20 02:32:21;;;;;;;1.60;1.50;;;10.10;69.50;;;;;;5023440;28;20294;-54
2023/11/20 02:34:47;;;;;;;2.23;1.37;;;10.00;65.60;;;;;;5017842;28;20238;-52
2023/11/20 02:37:14;;;;;;;1.77;1.67;;;10.00;66.40;;;;;;5016029;28;20289;-56
2023/11/20 02:39:40;;;;;;;1.50;1.40;;;10.00;66.10;;;;;;5020582;28;20225;-52
2023/11/20 02:42:07;;;;;;;2.10;2.00;;;10.00;66.30;;;;;;5007201;28;20223;-55
2023/11/20 02:44:34;;;;;;;2.50;1.60;;;10.00;66.10;;;;;;5007639;28;20209;-51
2023/11/20 02:47:00;;;;;;;1.27;1.27;;;10.00;66.90;;;;;;5018613;28;20302;-54
2023/11/20 02:49:27;;;;;;;1.50;1.40;;;9.90;67.60;;;;;;5020426;28;20753;-54
2023/11/20 02:51:53;;;;;;;2.27;1.80;;;9.80;68.70;;;;;;5018261;28;20764;-53
2023/11/20 02:54:20;;;;;;;2.10;1.43;;;9.80;69.30;;;;;;5021837;28;20848;-52
2023/11/20 02:56:47;;;;;;;1.57;1.47;;;9.80;67.90;;;;;;5002521;28;20207;-53
2023/11/20 02:59:13;;;;;;;1.27;1.23;;;9.80;69.70;;;;;;5012917;28;20222;-53
2023/11/20 03:01:40;;;;;;;3.93;2.20;;;9.80;67.90;;;;;;5004896;28;20206;-53
2023/11/20 03:04:06;;;;;;;1.87;1.47;;;9.80;71.20;;;;;;5017195;28;20206;-52
2023/11/20 03:06:32;;;;;;;1.50;1.40;;;9.70;70.90;;;;;;5017451;28;20733;-53
2023/11/20 03:08:59;;;;;;;1.50;1.40;;;9.70;70.00;;;;;;5020058;28;20233;-52
2023/11/20 03:11:25;;;;;;;1.90;1.80;;;9.70;75.10;;;;;;5014798;28;20302;-56
2023/11/20 03:13:52;;;;;;;1.40;1.30;;;9.70;73.00;;;;;;5015239;28;20281;-53
2023/11/20 03:16:18;;;;;;;3.40;1.50;;;9.70;72.20;;;;;;5021437;28;20223;-52
2023/11/20 03:18:45;;;;;;;1.70;1.50;;;9.70;74.30;;;;;;5017794;28;20211;-54
2023/11/20 03:21:12;;;;;;;2.37;1.60;;;9.70;73.30;;;;;;5007579;28;20283;-54
2023/11/20 03:23:38;;;;;;;1.60;1.50;;;9.80;72.90;;;;;;5001878;28;20227;-53
2023/11/20 03:26:06;;;;;;;2.37;1.67;;;9.80;73.40;;;;;;5011027;28;20313;-52
2023/11/20 03:28:33;;;;;;;1.50;1.40;;;9.80;73.90;;;;;;5005391;28;20223;-54
2023/11/20 03:30:59;;;;;;;2.23;1.70;;;9.80;72.90;;;;;;5007777;28;20301;-52
2023/11/20 03:33:26;;;;;;;2.93;1.60;;;9.90;73.00;;;;;;5010703;28;20203;-52
2023/11/20 03:35:52;;;;;;;1.80;1.70;;;9.90;72.20;;;;;;5024097;28;20238;-52
2023/11/20 03:38:19;;;;;;;1.63;1.37;;;9.90;72.10;;;;;;5020934;28;20237;-53
2023/11/20 03:40:45;;;;;;;1.77;1.63;;;10.00;70.00;;;;;;5021361;28;20770;-53
2023/11/20 03:43:12;;;;;;;1.60;1.50;;;10.10;70.00;;;;;;5024599;28;20222;-57
2023/11/20 03:45:38;;;;;;;1.80;1.70;;;10.10;69.50;;;;;;5011177;28;20661;-54
2023/11/20 03:48:05;;;;;;;5.00;1.60;;;10.20;67.00;;;;;;5020549;28;20309;-55
2023/11/20 03:50:31;;;;;;;1.30;1.20;;;10.20;67.70;;;;;;5016165;28;20226;-53
2023/11/20 03:52:57;;;;;;;1.90;1.63;;;10.30;67.90;;;;;;5025633;28;20282;-53
2023/11/20 03:55:23;;;;;;;1.80;1.50;;;10.30;66.50;;;;;;5023108;28;20227;-53
2023/11/20 03:57:49;;;;;;;1.47;1.43;;;10.30;66.30;;;;;;5026586;28;20568;-56
2023/11/20 04:00:16;;;;;;;1.60;1.50;;;10.40;66.20;;;;;;5018185;28;20216;-53
2023/11/20 04:02:42;;;;;;;2.40;1.40;;;10.30;64.00;;;;;;5020565;28;20609;-56
2023/11/20 04:05:09;;;;;;;2.00;1.90;;;10.30;67.30;;;;;;5014953;28;20322;-53
2023/11/20 04:07:35;;;;;;;1.60;1.50;;;10.40;65.20;;;;;;5012375;28;20291;-53
2023/11/20 04:10:02;;;;;;;1.60;1.50;;;10.40;65.70;;;;;;5018390;28;20302;-54
2023/11/20 04:12:28;;;;;;;2.50;1.80;;;10.40;64.90;;;;;;5023749;28;20205;-54
2023/11/20 04:14:55;;;;;;;1.30;1.30;;;10.40;64.00;;;;;;5026281;28;20260;-53
2023/11/20 04:17:20;;;;;;;1.63;1.30;;;10.40;64.50;;;;;;5014476;28;20693;-56
2023/11/20 04:19:47;;;;;;;1.77;1.40;;;10.40;65.20;;;;;;5027026;28;20208;-54
2023/11/20 04:22:13;;;;;;;1.53;1.43;;;10.30;64.60;;;;;;5015221;28;20871;-53
2023/11/20 04:24:40;;;;;;;1.80;1.70;;;10.30;65.20;;;;;;5018105;28;20228;-57
2023/11/20 04:27:06;;;;;;;2.87;1.80;;;10.30;64.70;;;;;;5025752;28;20299;-55
2023/11/20 04:29:33;;;;;;;1.83;1.50;;;10.30;64.70;;;;;;5023947;28;20211;-55
2023/11/20 04:31:59;;;;;;;2.93;1.67;;;10.30;63.30;;;;;;5020395;28;20302;-56
2023/11/20 04:34:26;;;;;;;1.47;1.37;;;10.30;63.20;;;;;;5017287;28;20238;-53
2023/11/20 04:36:52;;;;;;;1.90;1.40;;;10.20;64.60;;;;;;5016335;28;20210;-55
2023/11/20 04:39:19;;;;;;;2.03;1.70;;;10.30;65.60;;;;;;5010521;28;20220;-53
2023/11/20 04:41:45;;;;;;;2.33;1.60;;;10.20;62.50;;;;;;5005238;28;20307;-57
2023/11/20 04:44:12;;;;;;;1.87;1.50;;;10.20;64.50;;;;;;5018317;28;20238;-55
2023/11/20 04:46:38;;;;;;;3.17;1.50;;;10.20;64.50;;;;;;5021584;28;20238;-54
2023/11/20 04:49:04;;;;;;;1.73;1.60;;;10.20;64.10;;;;;;5021621;28;20219;-53
2023/11/20 04:51:31;;;;;;;1.73;1.50;;;10.20;63.90;;;;;;5017688;28;20718;-53
2023/11/20 04:53:57;;;;;;;1.70;1.60;;;10.20;62.40;;;;;;5022688;28;20203;-55
2023/11/20 04:56:24;;;;;;;2.10;1.73;;;10.30;64.70;;;;;;5014391;28;20228;-55
2023/11/20 04:58:50;;;;;;;2.83;1.70;;;10.30;64.10;;;;;;5018443;28;20641;-53
2023/11/20 05:01:17;;;;;;;1.60;1.50;;;10.30;62.00;;;;;;5011771;28;20270;-55
2023/11/20 05:03:44;;;;;;;2.17;1.50;;;10.30;61.80;;;;;;5021817;28;20310;-54
2023/11/20 05:06:11;;;;;;;1.80;1.60;;;10.30;61.90;;;;;;5015725;28;20608;-53
2023/11/20 05:08:37;;;;;;;2.10;1.60;;;10.40;61.10;;;;;;5013748;28;20212;-55
2023/11/20 05:11:04;;;;;;;4.37;1.57;;;10.40;59.90;;;;;;5024371;28;20639;-53
2023/11/20 05:13:30;;;;;;;1.43;1.33;;;10.40;61.00;;;;;;5023402;28;20203;-55
2023/11/20 05:15:56;;;;;;;3.97;1.60;;;10.30;60.60;;;;;;5021580;28;20222;-56
2023/11/20 05:18:23;;;;;;;2.13;1.27;;;10.40;60.30;;;;;;5011124;28;20618;-57
2023/11/20 05:20:49;;;;;;;2.23;2.00;;;10.30;59.90;;;;;;5025736;28;20670;-56
2023/11/20 05:23:16;;;;;;;2.60;1.67;;;10.30;59.80;;;;;;5017968;28;20606;-57
2023/11/20 05:25:42;;;;;;;1.70;1.60;;;10.30;59.10;;;;;;5019934;28;20249;-56
2023/11/20 05:28:09;;;;;;;2.40;1.60;;;10.30;61.70;;;;;;5021171;28;20322;-54
2023/11/20 05:30:36;;;;;;;3.67;2.03;;;10.30;61.30;;;;;;5020010;28;20205;-53
2023/11/20 05:33:03;;;;;;;2.23;1.80;;;10.30;60.90;;;;;;5024371;28;20205;-54
2023/11/20 05:35:29;;;;;;;1.83;1.73;;;10.30;62.50;;;;;;5022831;28;20314;-53
2023/11/20 05:37:56;;;;;;;1.77;1.50;;;10.30;59.50;;;;;;5008410;28;20240;-54
2023/11/20 05:40:22;;;;;;;3.03;1.70;;;10.30;62.40;;;;;;5010342;28;20297;-53
2023/11/20 05:42:49;;;;;;;1.77;1.57;;;10.30;63.00;;;;;;5021253;28;20230;-54
2023/11/20 05:45:16;;;;;;;1.70;1.60;;;10.20;62.00;;;;;;5024921;28;20784;-50
2023/11/20 05:47:42;;;;;;;3.20;1.60;;;10.30;62.70;;;;;;5017814;28;20627;-55
2023/11/20 05:50:08;;;;;;;11.93;3.53;;;10.20;62.20;;;;;;5019678;28;20235;-52
2023/11/20 05:52:35;;;;;;;1.80;1.47;;;10.20;61.50;;;;;;5021994;28;20298;-53
2023/11/20 05:55:02;;;;;;;3.20;2.00;;;10.20;62.40;;;;;;5018105;28;20616;-52
2023/11/20 05:57:29;;;;;;;3.30;1.80;;;10.30;64.60;;;;;;5008160;28;20212;-52
2023/11/20 05:59:56;;;;;;;1.80;1.60;;;10.20;63.40;;;;;;5015671;28;20214;-51
2023/11/20 06:02:22;;;;;;;3.47;1.50;;;10.20;64.00;;;;;;5012767;28;20305;-53
2023/11/20 06:04:49;;;;;;;2.97;1.67;;;10.20;63.70;;;;;;5000945;28;20347;-54
2023/11/20 06:07:15;;;;;;;3.00;1.80;;;10.20;64.70;;;;;;5021035;28;20302;-55
2023/11/20 06:09:42;;;;;;;1.97;1.73;;;10.20;64.60;;;;;;5014831;28;20212;-55
2023/11/20 06:12:09;;;;;;;2.07;1.80;;;10.20;65.10;;;;;;5013535;28;20226;-52
2023/11/20 06:14:35;;;;;;;4.33;1.90;;;10.20;64.10;;;;;;5011713;28;20241;-51
2023/11/20 06:17:02;;;;;;;2.47;1.87;;;10.20;65.40;;;;;;5023587;28;20213;-53
2023/11/20 06:19:28;;;;;;;3.40;1.80;;;10.10;65.80;;;;;;5018595;28;20591;-54
2023/11/20 06:21:55;;;;;;;5.37;1.90;;;10.20;64.70;;;;;;5026087;28;20855;-54
2023/11/20 06:24:21;;;;;;;4.40;1.67;;;10.10;65.00;;;;;;5021579;28;20231;-55
2023/11/20 06:26:48;;;;;;;3.33;1.70;;;10.10;64.90;;;;;;5020359;28;20698;-54
2023/11/20 06:29:14;;;;;;;2.77;1.80;;;10.10;62.40;;;;;;5004514;28;20663;-51
2023/11/20 06:31:41;;;;;;;3.90;2.23;;;10.10;64.70;;;;;;5014739;28;20222;-54
2023/11/20 06:34:08;;;;;;;2.83;1.97;;;10.00;63.50;;;;;;5017532;28;20764;-51
2023/11/20 06:36:35;;;;;;;3.63;1.80;;;10.10;62.30;;;;;;5021199;28;20224;-52
2023/11/20 06:39:03;;;;;;;2.13;1.63;;;10.10;65.20;;;;;;5018371;28;20203;-53
2023/11/20 06:41:29;;;;;;;4.50;1.90;;;10.00;61.70;;;;;;5021042;28;20209;-54
2023/11/20 06:43:56;;;;;;;2.30;1.83;;;10.00;64.80;;;;;;5023400;28;20304;-55
2023/11/20 06:46:22;;;;;;;2.30;1.80;;;10.00;63.70;;;;;;5018711;28;20232;-52
2023/11/20 06:48:49;;;;;;;3.87;2.03;;;10.00;64.60;;;;;;5016007;28;20302;-54
2023/11/20 06:51:15;;;;;;;2.03;1.47;;;10.00;61.80;;;;;;5006196;28;20205;-54
2023/11/20 06:53:43;;;;;;;2.43;2.23;;;10.00;64.60;;;;;;5014689;28;20289;-55
2023/11/20 06:56:09;;;;;;;3.07;2.00;;;10.00;63.60;;;;;;5016448;28;20227;-55
2023/11/20 06:58:36;;;;;;;3.03;1.80;;;10.10;63.60;;;;;;5020619;28;20217;-53
2023/11/20 07:01:04;;;;;;;1.87;1.57;;;10.10;63.90;;;;;;5005845;28;20275;-55
2023/11/20 07:03:31;;;;;;;3.77;1.40;;;10.10;63.70;;;;;;5013589;28;20230;-56
2023/11/20 07:05:58;;;;;;;2.20;1.80;;;10.10;63.70;;;;;;5002935;28;20233;-53
2023/11/20 07:08:26;;;;;;;3.73;1.70;;;10.10;61.20;;;;;;5024231;28;20234;-52
2023/11/20 07:10:53;;;;;;;3.23;1.63;;;10.10;64.10;;;;;;5001982;28;20646;-52
2023/11/20 07:13:19;;;;;;;1.73;1.60;;;10.10;63.80;;;;;;5015126;28;20581;-51
2023/11/20 07:15:46;;;;;;;3.53;1.70;;;10.10;61.30;;;;;;5014286;28;20240;-53
2023/11/20 07:18:12;;;;;;;2.97;1.90;;;10.20;63.60;;;;;;5017487;28;20295;-52
2023/11/20 07:20:39;;;;;;;3.50;1.80;;;10.20;61.80;;;;;;5008206;28;20208;-52
2023/11/20 07:23:05;;;;;;;3.53;2.20;;;10.20;62.00;;;;;;5010617;28;20287;-51
2023/11/20 07:25:33;;;;;;;3.60;2.50;;;10.20;61.60;;;;;;5011266;28;20310;-55
2023/11/20 07:28:00;;;;;;;1.90;1.80;;;10.30;62.60;;;;;;4988201;28;20216;-53
2023/11/20 07:30:27;;;;;;;3.00;1.70;;;10.30;61.50;;;;;;5007725;28;20215;-52
2023/11/20 07:32:55;;;;;;;2.33;1.90;;;10.40;62.10;;;;;;5006201;28;20209;-55
2023/11/20 07:35:21;;;;;;;2.73;1.70;;;10.40;62.00;;;;;;5015147;28;20256;-52
2023/11/20 07:37:47;;;;;;;2.40;1.70;;;10.40;60.80;;;;;;5008729;28;20224;-55
2023/11/20 07:40:15;;;;;;;1.90;1.70;;;10.50;59.40;;;;;;5015006;28;20211;-56
2023/11/20 07:42:42;;;;;;;2.77;2.10;;;10.40;62.40;;;;;;5005089;28;20211;-53
2023/11/20 07:45:09;;;;;;;2.97;1.80;;;10.50;60.30;;;;;;5008313;28;20229;-55
2023/11/20 07:47:35;;;;;;;2.90;1.77;;;10.50;61.30;;;;;;5009832;28;20686;-51
2023/11/20 07:50:02;;;;;;;3.73;1.90;;;10.50;62.20;;;;;;5008622;28;20625;-52
2023/11/20 07:52:28;;;;;;;3.27;2.00;;;10.50;60.70;;;;;;5008878;28;20650;-54
2023/11/20 07:54:55;;;;;;;3.33;1.90;;;10.50;60.70;;;;;;4994290;28;20232;-53
2023/11/20 07:57:22;;;;;;;3.33;1.80;;;10.60;60.10;;;;;;5014330;28;20690;-52
2023/11/20 07:59:48;;;;;;;3.07;2.33;;;10.60;59.30;;;;;;5017463;28;20325;-51
2023/11/20 08:02:15;;;;;;;3.07;2.03;;;10.60;59.30;;;;;;5010337;28;20251;-55
2023/11/20 08:04:41;;;;;;;3.73;1.90;;;10.70;60.60;;;;;;5014159;28;20246;-54
2023/11/20 08:07:08;;;;;;;5.83;2.30;;;10.70;59.20;;;;;;5008133;28;20213;-52
2023/11/20 08:09:35;;;;;;;2.17;1.80;;;10.70;60.80;;;;;;5022265;28;20739;-51
2023/11/20 08:12:02;;;;;;;4.40;1.93;;;10.80;62.50;;;;;;5012327;28;20259;-50
2023/11/20 08:14:28;;;;;;;4.20;1.80;;;10.80;55.20;;;;;;5006666;28;20214;-52
2023/11/20 08:16:56;;;;;;;3.80;1.83;;;10.80;56.10;;;;;;5008693;28;20209;-52
2023/11/20 08:19:22;;;;;;;5.73;1.90;;;10.80;56.60;;;;;;5021656;28;20209;-53
2023/11/20 08:21:49;;;;;;;4.73;2.20;;;10.80;55.60;;;;;;5011694;28;20245;-50
2023/11/20 08:24:15;;;;;;;2.90;1.77;;;10.90;54.50;;;;;;5021748;28;20727;-54
2023/11/20 08:26:42;;;;;;;2.10;1.77;;;11.00;56.70;;;;;;5020470;28;20642;-49
2023/11/20 08:29:08;;;;;;;5.17;1.90;;;11.20;54.20;;;;;;5018021;28;20514;-50
2023/11/20 08:31:35;;;;;;;2.43;1.73;;;11.50;54.90;;;;;;5014071;28;20220;-51
2023/11/20 08:34:01;;;;;;;4.47;2.10;;;;;;;;;;5011078;28;20299;-48
2023/11/20 08:36:28;;;;;;;4.30;2.17;;;;;;;;;;4995630;28;20802;-49
2023/11/20 08:38:55;;;;;;;3.83;2.10;;;;;;;;;;5020944;28;20217;-54
2023/11/20 08:41:23;;;;;;;3.60;1.80;;;;;;;;;;5021009;28;20215;-54
2023/11/20 08:43:49;;;;;;;3.57;1.63;;;12.70;56.50;;;;;;4996115;28;20222;-52
2023/11/20 08:46:16;;;;;;;2.70;1.60;;;;;;;;;;5007383;28;20333;-50
2023/11/20 08:48:43;;;;;;;2.70;1.70;;;12.80;76.10;;;;;;5009173;28;20552;-55
2023/11/20 08:51:09;;;;;;;4.30;1.40;;;12.60;60.20;;;;;;5014494;28;20266;-50
2023/11/20 08:53:36;;;;;;;3.13;1.57;;;12.50;60.10;;;;;;5015244;28;20232;-50
2023/11/20 08:56:03;;;;;;;5.20;2.13;;;12.90;60.10;;;;;;5013915;28;20239;-51
2023/11/20 08:58:29;;;;;;;3.00;1.60;;;13.20;56.30;;;;;;5007386;28;20305;-54
2023/11/20 09:03:31;;;;;;;1.87;1.53;;;13.60;66.20;;;;;;5004074;28;20205;-53
2023/11/20 09:05:58;;;;;;;4.43;1.97;;;13.80;59.20;;;;;;5011479;28;20321;-54
2023/11/20 09:08:26;;;;;;;2.83;1.67;;;;;;;;;;5012602;28;20212;-51
2023/11/20 09:10:52;;;;;;;2.23;1.60;;;13.70;88.70;;;;;;5017979;28;20653;-52
2023/11/20 09:13:19;;;;;;;1.93;1.50;;;13.40;79.30;;;;;;5013910;28;20611;-51
2023/11/20 09:15:46;;;;;;;2.40;1.50;;;13.80;79.20;;;;;;5007037;28;20318;-60
2023/11/20 09:18:12;;;;;;;2.57;1.63;;;14.00;78.80;;;;;;5015665;28;20214;-56
2023/11/20 09:20:39;;;;;;;2.43;1.50;;;14.80;57.90;;;;;;5013270;28;20214;-50
2023/11/20 09:23:05;;;;;;;3.10;1.80;;;14.90;74.20;;;;;;5020610;28;20556;-53
2023/11/20 09:25:32;;;;;;;4.40;2.03;;;14.30;68.10;;;;;;5019598;28;21717;-50
2023/11/20 09:27:58;;;;;;;3.67;1.80;;;14.20;67.10;;;;;;5012437;28;20212;-51
2023/11/20 09:30:25;;;;;;;3.33;1.33;;;14.30;66.00;;;;;;5010969;28;20230;-59
2023/11/20 09:32:51;;;;;;;1.73;1.27;;;14.40;63.80;;;;;;5002777;28;20643;-52
2023/11/20 09:35:20;;;;;;;2.47;1.50;;;14.20;64.20;;;;;;5007060;28;20546;-61
2023/11/20 09:37:47;;;;;;;2.67;1.50;;;14.40;63.30;;;;;;5008247;28;20222;-48
2023/11/20 09:40:13;;;;;;;3.00;1.83;;;14.30;64.00;;;;;;5019882;28;20214;-50
2023/11/20 09:42:40;;;;;;;2.80;1.83;;;14.30;54.20;;;;;;5023143;28;20203;-49
2023/11/20 09:45:07;;;;;;;2.80;1.53;;;14.60;55.90;;;;;;5008963;28;20320;-50
2023/11/20 09:47:34;;;;;;;3.27;1.60;;;14.20;66.10;;;;;;5011514;28;20203;-50
2023/11/20 09:50:00;;;;;;;2.67;1.80;;;14.60;61.90;;;;;;4980856;28;20209;-49
2023/11/20 09:52:27;;;;;;;2.23;1.50;;;;;;;;;;5001963;28;20319;-50
2023/11/20 09:54:57;;;;;;;2.83;1.67;;;15.00;61.00;;;;;;4986102;28;20962;-50
2023/11/20 09:57:26;;;;;;;3.30;1.93;;;14.90;69.00;;;;;;5007439;28;20530;-53
2023/11/20 09:59:52;;;;;;;5.03;1.60;;;15.00;66.70;;;;;;5011135;28;20220;-60
2023/11/20 10:02:19;;;;;;;2.40;1.30;;;14.70;65.80;;;;;;5008410;28;20217;-54
2023/11/20 10:04:46;;;;;;;2.93;1.57;;;14.70;67.30;;;;;;5013815;28;20293;-54
2023/11/20 10:07:12;;;;;;;3.10;1.80;;;14.00;67.30;;;;;;5009435;28;20296;-50
2023/11/20 10:09:40;;;;;;;2.67;1.40;;;;;;;;;;5013150;28;20255;-52
2023/11/20 10:12:07;;;;;;;3.30;1.50;;;;;;;;;;5019302;28;20648;-51
2023/11/20 10:14:33;;;;;;;3.07;1.40;;;14.10;53.90;;;;;;5020994;28;20734;-55
2023/11/20 10:17:00;;;;;;;2.83;1.53;;;13.90;56.00;;;;;;5000449;28;20581;-50
2023/11/20 10:19:29;;;;;;;3.40;1.50;;;;;;;;;;5009082;28;20653;-53
2023/11/20 10:21:56;;;;;;;3.20;1.43;;;;;;;;;;5007244;28;20243;-52
2023/11/20 10:24:23;;;;;;;1.70;1.30;;;13.70;54.90;;;;;;5016666;28;20233;-53
2023/11/20 10:26:49;;;;;;;4.53;1.60;;;13.90;52.60;;;;;;5017486;28;20289;-52
2023/11/20 10:29:16;;;;;;;1.70;1.43;;;14.00;53.90;;;;;;5017604;28;20214;-52
2023/11/20 10:31:43;;;;;;;3.70;1.70;;;13.90;53.20;;;;;;5021200;28;20442;-53
2023/11/20 10:34:10;;;;;;;1.67;1.40;;;13.50;53.60;;;;;;5019884;28;20241;-54
2023/11/20 10:36:36;;;;;;;4.60;2.10;;;;;;;;;;5021664;28;20249;-51
2023/11/20 10:39:03;;;;;;;3.57;1.80;;;13.10;43.20;;;;;;5008854;28;20305;-51
2023/11/20 10:41:30;;;;;;;3.53;1.23;;;;;;;;;;5007566;28;20214;-52
2023/11/20 10:43:56;;;;;;;3.37;1.70;;;13.50;47.50;;;;;;5019122;28;20211;-54
2023/11/20 10:46:23;;;;;;;2.50;1.83;;;13.40;48.10;;;;;;5016490;28;20282;-51
2023/11/20 10:48:50;;;;;;;1.93;1.70;;;13.60;47.70;;;;;;5022687;28;20296;-53
2023/11/20 10:51:16;;;;;;;5.53;2.10;;;13.80;43.30;;;;;;5023049;28;20293;-54
2023/11/20 10:53:43;;;;;;;3.53;1.50;;;13.50;43.20;;;;;;5019401;28;20210;-55
2023/11/20 10:56:09;;;;;;;4.77;1.83;;;13.80;42.00;;;;;;5015260;28;20222;-54
2023/11/20 10:58:36;;;;;;;2.13;1.40;;;13.60;41.80;;;;;;5001910;28;20212;-51
2023/11/20 11:01:02;;;;;;;3.90;1.80;;;13.40;41.80;;;;;;5021611;28;20206;-50
2023/11/20 11:03:30;;;;;;;4.00;1.60;;;13.40;41.90;;;;;;5020327;28;20242;-49
2023/11/20 11:05:56;;;;;;;2.67;1.57;;;13.30;46.70;;;;;;5009110;28;20227;-52
2023/11/20 11:08:23;;;;;;;3.20;1.40;;;13.20;47.20;;;;;;5001550;28;20208;-54
2023/11/20 11:10:49;;;;;;;1.90;1.33;;;13.10;42.60;;;;;;4991642;28;20213;-51
2023/11/20 11:13:16;;;;;;;4.40;1.60;;;12.80;43.00;;;;;;5005079;28;20213;-51
2023/11/20 11:15:42;;;;;;;3.83;1.90;;;12.80;43.80;;;;;;5008241;28;20226;-52
2023/11/20 11:18:09;;;;;;;4.77;1.53;;;;;;;;;;5015706;28;20226;-53
2023/11/20 11:20:37;;;;;;;3.43;1.70;;;13.10;43.50;;;;;;5015506;28;20230;-54
2023/11/20 11:23:03;;;;;;;2.07;1.50;;;14.60;40.70;;;;;;5013408;28;20205;-53
2023/11/20 11:25:29;;;;;;;2.92;1.55;;;15.90;38.00;;;;;;5005423;28;20227;-55
2023/11/20 11:27:57;;;;;;;3.33;1.40;;;14.90;38.70;;;;;;5010745;28;20234;-52
2023/11/20 11:30:23;;;;;;;2.63;1.47;;;14.00;39.50;;;;;;5020304;28;20579;-49
2023/11/20 11:32:50;;;;;;;4.47;1.80;;;;;;;;;;5019137;28;20213;-51
2023/11/20 11:35:17;;;;;;;4.50;1.97;;;13.40;41.20;;;;;;5002671;28;20224;-50
2023/11/20 11:37:43;;;;;;;2.70;1.47;;;14.70;46.80;;;;;;5007435;28;20213;-49
2023/11/20 11:40:10;;;;;;;3.33;1.80;;;13.60;46.40;;;;;;5005404;28;20249;-53
2023/11/20 11:42:37;;;;;;;3.73;1.70;;;13.40;45.60;;;;;;4995098;28;20204;-51
2023/11/20 11:45:04;;;;;;;3.10;1.73;;;;;;;;;;5018377;28;20238;-53
2023/11/20 11:47:31;;;;;;;3.53;1.90;;;15.50;37.70;;;;;;5005820;28;20250;-50
2023/11/20 11:49:58;;;;;;;2.80;1.55;;;17.40;34.60;;;;;;4981345;28;20318;-57
2023/11/20 11:52:25;;;;;;;2.58;1.63;;;18.10;32.80;;;;;;5013305;28;20302;-51
2023/11/20 11:54:52;;;;;;;3.80;1.40;;;19.30;30.90;;;;;;5018614;28;20596;-54
2023/11/20 11:57:18;;;;;;;2.65;1.50;;;17.90;32.70;;;;;;5018659;28;20215;-52
2023/11/20 11:59:45;;;;;;;3.17;1.23;;;17.90;30.90;;;;;;5011554;28;20689;-51
2023/11/20 12:02:13;;;;;;;3.65;1.45;;;;;;;;;;5017258;28;20217;-50
2023/11/20 12:04:38;;;;;;;4.07;1.58;;;14.10;37.00;;;;;;5014843;28;20227;-50
2023/11/20 12:07:05;;;;;;;2.50;1.55;;;;;;;;;;5017869;28;20282;-51
2023/11/20 12:09:31;;;;;;;1.83;1.38;;;16.20;33.50;;;;;;5000242;28;20208;-49
2023/11/20 12:11:59;;;;;;;4.30;1.63;;;16.60;32.20;;;;;;5014245;28;20211;-50
2023/11/20 12:14:25;;;;;;;3.75;1.70;;;17.90;31.00;;;;;;5021583;28;20265;-50
2023/11/20 12:16:52;;;;;;;3.17;1.50;;;17.70;30.90;;;;;;5021634;28;20737;-54
2023/11/20 12:19:19;;;;;;;3.95;1.63;;;17.60;31.50;;;;;;5019293;28;20218;-52
2023/11/20 12:21:45;;;;;;;5.80;1.70;;;17.50;31.20;;;;;;5011437;28;20664;-52
2023/11/20 12:24:12;;;;;;;3.67;1.55;;;18.00;30.80;;;;;;5020952;28;20234;-52
2023/11/20 12:26:39;;;;;;;4.80;1.90;;;17.90;31.10;;;;;;5007994;28;20224;-52
2023/11/20 12:29:05;;;;;;;4.15;1.40;;;18.30;30.20;;;;;;5008151;28;20625;-52
2023/11/20 12:31:32;;;;;;;3.38;1.33;;;18.10;29.80;;;;;;5012128;28;20246;-53
2023/11/20 12:34:01;;;;;;;3.25;1.30;;;18.00;29.40;;;;;;5009892;28;20207;-56
2023/11/20 12:36:27;;;;;;;2.92;1.35;;;16.40;31.50;;;;;;4999257;28;20227;-56
2023/11/20 12:38:53;;;;;;;3.42;1.50;;;15.20;33.70;;;;;;5021825;28;20198;-52
2023/11/20 12:41:20;;;;;;;3.72;1.42;;;14.80;39.10;;;;;;5014219;28;20298;-51
2023/11/20 12:43:48;;;;;;;3.88;1.60;;;;;;;;;;5008696;28;20207;-52
2023/11/20 12:46:17;;;;;;;6.82;2.03;;;14.70;36.00;;;;;;5016313;28;20231;-51
2023/11/20 12:48:43;;;;;;;3.90;1.27;;;14.70;36.00;;;;;;5022258;28;20301;-52
2023/11/20 12:51:09;;;;;;;2.97;1.30;;;13.90;37.70;;;;;;5016744;28;20297;-53